Time;durP1;ratioP1;P1;durP2;ratioP2;P2;SDS_P1;SDS_P2;PMS_P1;PMS_P2;Temp;Humidity;BMP_temperature;BMP_pressure;BME280_temperature;BME280_humidity;BME280_pressure;Samples;Min_cycle;Max_cycle;Signal;HPM_P1;HPM_P2
2023/07/03 00:01:54;;;;;;;;;;;;;;;22.85;47.53;95450.53;10398821;28;1999;-67
2023/07/03 00:06:54;;;;;;;;;;;;;;;22.85;47.58;95453.19;10393958;28;2000;-67
2023/07/03 00:11:54;;;;;;;;;;;;;;;22.85;47.58;95446.03;10396055;28;2038;-67
2023/07/03 00:16:55;;;;;;;;;;;;;;;22.87;47.57;95437.81;10378917;28;2085;-67
2023/07/03 00:22:00;;;;;;;;;;;;;;;22.88;47.74;95456.00;10392729;28;1946;-67
2023/07/03 00:27:00;;;;;;;;;;;;;;;22.90;47.46;95458.34;10398011;28;2471;-66
2023/07/03 00:32:00;;;;;;;;;;;;;;;22.91;47.76;95470.50;10406245;28;1988;-66
2023/07/03 00:37:01;;;;;;;;;;;;;;;22.91;47.73;95458.09;10413014;28;1900;-67
2023/07/03 00:42:02;;;;;;;;;;;;;;;22.92;47.80;95453.56;10406745;28;4443;-67
2023/07/03 00:47:03;;;;;;;;;;;;;;;22.92;47.80;95464.13;10405287;28;1941;-66
2023/07/03 00:52:03;;;;;;;;;;;;;;;22.93;47.36;95458.56;10402630;28;2055;-67
2023/07/03 00:57:04;;;;;;;;;;;;;;;22.92;47.61;95472.06;10400047;28;2019;-66
2023/07/03 01:02:07;;;;;;;;;;;;;;;22.91;47.54;95466.00;10401481;28;2035;-66
2023/07/03 01:07:09;;;;;;;;;;;;;;;22.89;47.38;95462.09;10403592;28;2193;-66
2023/07/03 01:12:09;;;;;;;;;;;;;;;22.88;47.42;95456.00;10402082;28;2003;-66
2023/07/03 01:17:10;;;;;;;;;;;;;;;22.90;47.62;95466.28;10399762;28;1995;-67
2023/07/03 01:22:16;;;;;;;;;;;;;;;22.89;47.51;95468.16;10398913;28;2092;-66
2023/07/03 01:27:17;;;;;;;;;;;;;;;22.88;47.36;95469.22;10404800;28;1963;-66
2023/07/03 01:32:19;;;;;;;;;;;;;;;22.88;47.81;95466.59;10401075;28;1956;-66
2023/07/03 01:37:20;;;;;;;;;;;;;;;22.86;47.48;95466.09;10384996;28;2207;-66
2023/07/03 01:42:21;;;;;;;;;;;;;;;22.86;47.41;95468.75;10400806;28;4431;-66
2023/07/03 01:47:21;;;;;;;;;;;;;;;22.84;47.41;95470.91;10387379;28;2003;-67
2023/07/03 01:52:23;;;;;;;;;;;;;;;22.84;47.44;95470.91;10399847;28;2027;-66
2023/07/03 01:57:42;;;;;;;;;;;;;;;22.85;47.51;95466.41;10401918;28;2103;-66
2023/07/03 02:02:44;;;;;;;;;;;;;;;22.84;47.36;95464.81;10402896;28;2011;-65
2023/07/03 02:07:45;;;;;;;;;;;;;;;22.84;47.26;95464.81;10386508;28;1972;-68
2023/07/03 02:12:45;;;;;;;;;;;;;;;22.83;47.42;95460.63;10387077;28;2293;-67
2023/07/03 02:17:45;;;;;;;;;;;;;;;22.84;47.33;95459.53;10383082;28;2319;-66
2023/07/03 02:22:46;;;;;;;;;;;;;;;22.83;47.50;95464.06;10398867;28;2067;-66
2023/07/03 02:27:47;;;;;;;;;;;;;;;22.83;47.15;95464.06;10384263;28;2277;-66
2023/07/03 02:32:47;;;;;;;;;;;;;;;22.82;47.17;95464.34;10398098;28;2094;-66
2023/07/03 02:37:48;;;;;;;;;;;;;;;22.83;47.28;95473.84;10396250;28;2483;-65
2023/07/03 02:42:48;;;;;;;;;;;;;;;22.83;47.28;95471.19;10398960;28;5021;-66
2023/07/03 02:47:48;;;;;;;;;;;;;;;22.82;47.27;95472.25;10404001;28;2057;-66
2023/07/03 02:52:48;;;;;;;;;;;;;;;22.82;47.12;95473.06;10399064;28;2019;-66
2023/07/03 02:57:49;;;;;;;;;;;;;;;22.80;47.07;95469.91;10401655;28;2071;-65
2023/07/03 03:02:49;;;;;;;;;;;;;;;22.80;46.96;95474.41;10403035;28;2120;-64
2023/07/03 03:07:49;;;;;;;;;;;;;;;22.78;46.90;95476.56;10402860;28;2233;-66
2023/07/03 03:12:49;;;;;;;;;;;;;;;22.78;46.67;95487.13;10406096;28;2048;-65
2023/07/03 03:17:50;;;;;;;;;;;;;;;22.76;46.67;95479.50;10400958;28;2003;-66
2023/07/03 03:22:50;;;;;;;;;;;;;;;22.76;46.68;95481.38;10386026;28;1983;-65
2023/07/03 03:27:50;;;;;;;;;;;;;;;22.75;46.69;95482.47;10400531;28;2019;-66
2023/07/03 03:32:51;;;;;;;;;;;;;;;22.73;46.60;95485.38;10398831;28;2325;-66
2023/07/03 03:37:51;;;;;;;;;;;;;;;22.71;46.26;95484.13;10400450;28;1984;-62
2023/07/03 03:42:51;;;;;;;;;;;;;;;22.68;46.23;95488.13;10401032;28;1993;-61
2023/07/03 03:47:52;;;;;;;;;;;;;;;22.68;46.18;95490.78;10402896;28;2078;-62
2023/07/03 03:52:52;;;;;;;;;;;;;;;22.68;46.17;95488.13;10399516;28;2039;-70
2023/07/03 03:57:52;;;;;;;;;;;;;;;22.70;46.19;95482.53;10400392;28;2091;-69
2023/07/03 04:02:53;;;;;;;;;;;;;;;22.67;45.93;95482.06;10399344;28;2525;-69
2023/07/03 04:07:53;;;;;;;;;;;;;;;22.69;45.91;95488.91;10400040;28;2271;-69
2023/07/03 04:12:54;;;;;;;;;;;;;;;22.67;45.87;95482.06;10404342;28;2252;-69
2023/07/03 04:17:54;;;;;;;;;;;;;;;22.67;45.71;95489.97;10402135;28;2209;-69
2023/07/03 04:22:54;;;;;;;;;;;;;;;22.67;45.74;95497.91;10406315;28;2063;-68
2023/07/03 04:27:54;;;;;;;;;;;;;;;22.67;45.59;95493.72;10407944;28;2486;-69
2023/07/03 04:32:55;;;;;;;;;;;;;;;22.67;45.57;95497.91;10407668;28;2269;-69
2023/07/03 04:37:55;;;;;;;;;;;;;;;22.65;45.49;95496.63;10405474;28;2099;-69
2023/07/03 04:42:55;;;;;;;;;;;;;;;22.61;45.29;95498.28;10403545;28;4494;-69
2023/07/03 04:47:56;;;;;;;;;;;;;;;22.59;44.96;95500.44;10404214;28;1996;-69
2023/07/03 04:52:57;;;;;;;;;;;;;;;22.57;45.07;95498.06;10411760;28;2099;-68
2023/07/03 04:57:59;;;;;;;;;;;;;;;22.56;44.87;95496.50;10405189;28;1967;-68
2023/07/03 05:03:00;;;;;;;;;;;;;;;22.57;44.93;95503.34;10413459;28;2191;-68
2023/07/03 05:08:00;;;;;;;;;;;;;;;22.56;44.63;95501.00;10403027;28;2193;-69
2023/07/03 05:13:00;;;;;;;;;;;;;;;22.50;44.66;95508.22;10406562;28;2118;-70
2023/07/03 05:18:00;;;;;;;;;;;;;;;22.50;44.80;95510.84;10385112;28;2028;-70
2023/07/03 05:23:01;;;;;;;;;;;;;;;22.50;44.64;95510.09;10399033;28;2233;-69
2023/07/03 05:28:01;;;;;;;;;;;;;;;22.51;44.53;95509.78;10401395;28;2046;-68
2023/07/03 05:33:01;;;;;;;;;;;;;;;22.50;44.33;95523.31;10401537;28;2128;-70
2023/07/03 05:38:02;;;;;;;;;;;;;;;22.49;44.65;95517.22;10403503;28;2023;-68
2023/07/03 05:43:02;;;;;;;;;;;;;;;22.49;44.43;95525.16;10401450;28;4462;-67
2023/07/03 05:48:03;;;;;;;;;;;;;;;22.50;44.56;95524.06;10400407;28;2022;-69
2023/07/03 05:53:03;;;;;;;;;;;;;;;22.51;44.51;95517.72;10394860;28;2166;-68
2023/07/03 05:58:03;;;;;;;;;;;;;;;22.51;44.14;95528.28;10380886;28;2119;-66
2023/07/03 06:03:04;;;;;;;;;;;;;;;22.51;44.33;95532.78;10400615;28;2168;-68
2023/07/03 06:08:04;;;;;;;;;;;;;;;22.51;43.94;95538.84;10408108;28;2050;-65
2023/07/03 06:13:05;;;;;;;;;;;;;;;22.51;43.77;95544.13;10398407;28;2050;-68
2023/07/03 06:18:05;;;;;;;;;;;;;;;22.52;44.11;95537.75;10399668;28;1983;-67
2023/07/03 06:23:05;;;;;;;;;;;;;;;22.55;44.00;95541.69;10397779;28;2020;-68
2023/07/03 06:28:05;;;;;;;;;;;;;;;22.53;43.77;95543.84;10383443;28;1994;-68
2023/07/03 06:33:06;;;;;;;;;;;;;;;22.52;43.80;95543.03;10398698;28;2008;-68
2023/07/03 06:38:07;;;;;;;;;;;;;;;22.51;43.33;95541.50;10379050;28;2086;-68
2023/07/03 06:43:07;;;;;;;;;;;;;;;22.50;43.48;95533.88;10397894;28;4654;-68
2023/07/03 06:48:08;;;;;;;;;;;;;;;22.48;42.97;95534.13;10380718;28;1996;-68
2023/07/03 06:53:08;;;;;;;;;;;;;;;22.48;42.86;95536.78;10396931;28;1996;-68
2023/07/03 06:58:08;;;;;;;;;;;;;;;22.46;42.77;95540.81;10396092;28;1983;-68
2023/07/03 07:03:09;;;;;;;;;;;;;;;22.44;43.04;95538.44;10393584;28;1997;-68
2023/07/03 07:08:16;;;;;;;;;;;;;;;22.45;42.96;95540.00;10398733;28;1897;-67
2023/07/03 07:13:16;;;;;;;;;;;;;;;22.45;42.81;95541.88;10378553;28;1911;-68
2023/07/03 07:18:16;;;;;;;;;;;;;;;22.46;42.80;95538.16;10393661;28;2226;-68
2023/07/03 07:23:17;;;;;;;;;;;;;;;22.48;43.25;95536.00;10394591;28;2047;-68
2023/07/03 07:28:17;;;;;;;;;;;;;;;22.48;43.01;95531.50;10395710;28;1867;-69
2023/07/03 07:33:17;;;;;;;;;;;;;;;22.48;43.09;95531.50;10393447;28;1973;-68
2023/07/03 07:38:18;;;;;;;;;;;;;;;22.50;43.25;95525.94;10399212;28;2057;-69
2023/07/03 07:43:18;;;;;;;;;;;;;;;22.51;43.26;95530.13;10402439;28;4584;-69
2023/07/03 07:48:19;;;;;;;;;;;;;;;22.49;43.18;95529.63;10401544;28;2016;-69
2023/07/03 07:53:19;;;;;;;;;;;;;;;22.50;42.81;95526.69;10400677;28;2010;-68
2023/07/03 07:58:19;;;;;;;;;;;;;;;22.48;43.01;95536.78;10398977;28;1969;-69
2023/07/03 08:03:20;;;;;;;;;;;;;;;22.50;42.75;95533.88;10399276;28;1956;-69
2023/07/03 08:08:20;;;;;;;;;;;;;;;22.53;42.86;95533.28;10398951;28;1981;-68
2023/07/03 08:13:20;;;;;;;;;;;;;;;22.53;43.18;95534.06;10403772;28;2136;-71
2023/07/03 08:18:21;;;;;;;;;;;;;;;22.53;43.20;95533.28;10361578;28;1100346;-71
2023/07/03 08:23:21;;;;;;;;;;;;;;;22.55;42.98;95531.13;10402769;28;2035;-69
2023/07/03 08:28:21;;;;;;;;;;;;;;;22.56;42.93;95536.13;10403201;28;1991;-69
2023/07/03 08:33:22;;;;;;;;;;;;;;;22.56;43.08;95532.69;10403067;28;2062;-69
2023/07/03 08:38:22;;;;;;;;;;;;;;;22.59;43.24;95522.34;10404995;28;2037;-72
2023/07/03 08:43:22;;;;;;;;;;;;;;;22.59;43.07;95525.00;10404480;28;4347;-68
2023/07/03 08:48:23;;;;;;;;;;;;;;;22.61;42.72;95525.50;10403085;28;1997;-68
2023/07/03 08:53:28;;;;;;;;;;;;;;;22.60;42.62;95528.44;10388818;28;1909;-67
2023/07/03 08:58:28;;;;;;;;;;;;;;;22.58;42.31;95528.72;10402442;28;1894;-70
2023/07/03 09:03:34;;;;;;;;;;;;;;;22.54;42.20;95526.94;10384716;28;1983;-69
2023/07/03 09:08:54;;;;;;;;;;;;;;;22.53;41.94;95517.41;10399122;28;2387;-68
2023/07/03 09:13:55;;;;;;;;;;;;;;;22.53;42.28;95528.78;10401450;28;2195;-69
2023/07/03 09:19:06;;;;;;;;;;;;;;;22.53;42.25;95523.50;10400646;28;1941;-68
2023/07/03 09:24:09;;;;;;;;;;;;;;;22.55;41.96;95531.91;10382268;28;2074;-69
2023/07/03 09:29:10;;;;;;;;;;;;;;;22.57;41.96;95535.03;10385337;28;1970;-69
2023/07/03 09:34:10;;;;;;;;;;;;;;;22.57;41.59;95536.91;10400202;28;1969;-70
2023/07/03 09:39:11;;;;;;;;;;;;;;;22.59;42.02;95537.41;10381559;28;1905;-70
2023/07/03 09:44:12;;;;;;;;;;;;;;;22.58;41.75;95536.66;10402091;28;4621;-72
2023/07/03 09:49:24;;;;;;;;;;;;;;;22.59;41.97;95532.94;10397532;28;1984;-70
2023/07/03 09:54:28;;;;;;;;;;;;;;;22.61;41.76;95529.97;10393604;28;2074;-71
2023/07/03 09:59:28;;;;;;;;;;;;;;;22.60;41.36;95534.50;10383279;28;1996;-70
2023/07/03 10:04:32;;;;;;;;;;;;;;;22.60;41.90;95542.44;10357946;28;2337;-70
2023/07/03 10:09:33;;;;;;;;;;;;;;;22.65;41.39;95541.53;10398992;28;2018;-70
2023/07/03 10:14:39;;;;;;;;;;;;;;;22.63;41.09;95541.03;10398200;28;1935;-69
2023/07/03 10:19:40;;;;;;;;;;;;;;;22.62;40.95;95534.22;10398719;28;1954;-70
2023/07/03 10:24:40;;;;;;;;;;;;;;;22.63;41.05;95539.19;10382999;28;1889;-68
2023/07/03 10:29:42;;;;;;;;;;;;;;;22.62;40.71;95542.94;10394571;28;1894;-69
2023/07/03 10:35:03;;;;;;;;;;;;;;;22.64;41.04;95546.06;10374173;28;2012;-69
2023/07/03 10:40:09;;;;;;;;;;;;;;;22.71;40.93;95539.59;10393639;28;2208;-70
2023/07/03 10:45:10;;;;;;;;;;;;;;;22.67;40.74;95533.34;10396786;28;4549;-66
2023/07/03 10:50:11;;;;;;;;;;;;;;;22.70;40.66;95538.81;10396559;28;1988;-68
2023/07/03 10:55:15;;;;;;;;;;;;;;;22.72;40.79;95535.88;10393594;28;2013;-68
2023/07/03 11:00:20;;;;;;;;;;;;;;;22.73;41.04;95548.03;10395726;28;2290;-67
2023/07/03 11:05:25;;;;;;;;;;;;;;;22.74;41.07;95539.00;10378488;28;1950;-68
2023/07/03 11:10:46;;;;;;;;;;;;;;;22.75;41.24;95532.66;10383089;28;2355;-68
2023/07/03 11:16:05;;;;;;;;;;;;;;;22.75;41.45;95527.38;10379653;28;1893;-68
2023/07/03 11:21:06;;;;;;;;;;;;;;;22.76;41.44;95535.00;10396948;28;2028;-68
2023/07/03 11:26:12;;;;;;;;;;;;;;;22.75;41.49;95528.13;10398376;28;1919;-69
2023/07/03 11:31:14;;;;;;;;;;;;;;;22.75;41.82;95524.72;10379198;28;1939;-69
2023/07/03 11:36:32;;;;;;;;;;;;;;;22.75;41.52;95524.72;10392236;28;2083;-69
2023/07/03 11:41:43;;;;;;;;;;;;;;;22.77;41.48;95527.88;10387964;28;4494;-68
2023/07/03 11:46:43;;;;;;;;;;;;;;;22.79;41.30;95525.72;10390516;28;1972;-69
2023/07/03 11:51:43;;;;;;;;;;;;;;;22.81;41.41;95524.34;10376008;28;2174;-68
2023/07/03 11:56:45;;;;;;;;;;;;;;;22.80;41.25;95521.97;10394192;28;2271;-68
2023/07/03 12:01:45;;;;;;;;;;;;;;;22.82;41.17;95525.13;10378966;28;2014;-69
2023/07/03 12:06:45;;;;;;;;;;;;;;;22.80;40.73;95514.84;10395634;28;2069;-69
2023/07/03 12:12:02;;;;;;;;;;;;;;;22.80;40.94;95522.78;10395593;28;1886;-69
2023/07/03 12:17:03;;;;;;;;;;;;;;;22.83;40.94;95516.13;10393735;28;1857;-68
2023/07/03 12:22:03;;;;;;;;;;;;;;;22.84;41.15;95502.63;10394705;28;1910;-68
2023/07/03 12:27:04;;;;;;;;;;;;;;;22.85;41.10;95501.53;10400462;28;2045;-69
2023/07/03 12:32:06;;;;;;;;;;;;;;;22.86;40.57;95511.03;10383933;28;2040;-68
2023/07/03 12:37:08;;;;;;;;;;;;;;;22.90;40.75;95505.94;10397501;28;2015;-69
2023/07/03 12:42:09;;;;;;;;;;;;;;;22.89;40.96;95499.09;10411763;28;4524;-69
2023/07/03 12:47:11;;;;;;;;;;;;;;;22.92;40.95;95501.13;10385737;28;1886;-68
2023/07/03 12:52:13;;;;;;;;;;;;;;;22.94;40.94;95509.56;10397880;28;2289;-68
2023/07/03 12:57:13;;;;;;;;;;;;;;;22.94;40.96;95501.63;10383651;28;1967;-69
2023/07/03 13:02:18;;;;;;;;;;;;;;;22.94;40.84;95496.34;10384782;28;1963;-69
2023/07/03 13:07:18;;;;;;;;;;;;;;;22.93;40.76;95487.66;10402699;28;2042;-69
2023/07/03 13:12:19;;;;;;;;;;;;;;;22.94;40.79;95485.75;10385321;28;1949;-68
2023/07/03 13:17:29;;;;;;;;;;;;;;;22.95;40.64;95480.19;10401749;28;1931;-69
2023/07/03 13:22:32;;;;;;;;;;;;;;;22.96;40.84;95488.91;10398999;28;1967;-69
2023/07/03 13:27:34;;;;;;;;;;;;;;;22.94;40.46;95478.63;10395668;28;1983;-69
2023/07/03 13:32:34;;;;;;;;;;;;;;;22.93;40.18;95478.94;10398014;28;1894;-69
2023/07/03 13:37:35;;;;;;;;;;;;;;;22.95;40.46;95472.28;10401402;28;2067;-69
2023/07/03 13:42:36;;;;;;;;;;;;;;;22.98;40.62;95478.84;10400061;28;4450;-68
2023/07/03 13:47:36;;;;;;;;;;;;;;;22.97;40.48;95469.31;10396690;28;1950;-70
2023/07/03 13:52:37;;;;;;;;;;;;;;;22.98;40.13;95460.34;10401562;28;2546;-69
2023/07/03 13:57:37;;;;;;;;;;;;;;;22.98;40.08;95455.81;10397451;28;1988;-69
2023/07/03 14:02:38;;;;;;;;;;;;;;;22.98;39.91;95462.97;10400400;28;1946;-72
2023/07/03 14:07:39;;;;;;;;;;;;;;;22.99;40.01;95453.94;10381562;28;1953;-73
2023/07/03 14:12:39;;;;;;;;;;;;;;;22.99;39.89;95456.59;10398633;28;2068;-72
2023/07/03 14:17:39;;;;;;;;;;;;;;;23.00;40.01;95463.47;10397449;28;2101;-72
2023/07/03 14:22:41;;;;;;;;;;;;;;;23.00;40.49;95458.19;10382184;28;2010;-71
2023/07/03 14:27:41;;;;;;;;;;;;;;;23.03;40.97;95449.63;10399075;28;1870;-69
2023/07/03 14:32:41;;;;;;;;;;;;;;;23.06;40.04;95449.06;10380777;28;2011;-70
2023/07/03 14:37:42;;;;;;;;;;;;;;;23.06;40.46;95454.34;10380232;28;1935;-70
2023/07/03 14:42:42;;;;;;;;;;;;;;;23.05;40.40;95461.50;10381549;28;4485;-70
2023/07/03 14:47:42;;;;;;;;;;;;;;;23.08;40.24;95449.53;10406896;28;2353;-69
2023/07/03 14:52:43;;;;;;;;;;;;;;;23.09;40.50;95453.75;10398379;28;1952;-69
2023/07/03 14:57:44;;;;;;;;;;;;;;;23.09;40.08;95451.09;10381205;28;1974;-69
2023/07/03 15:02:48;;;;;;;;;;;;;;;23.10;40.20;95439.47;10395786;28;1937;-69
2023/07/03 15:07:48;;;;;;;;;;;;;;;23.09;40.50;95441.31;10399495;28;1942;-70
2023/07/03 15:12:48;;;;;;;;;;;;;;;23.11;40.49;95444.44;10409401;28;1942;-64
2023/07/03 15:17:49;;;;;;;;;;;;;;;23.11;40.21;95441.81;10396093;28;1959;-69
2023/07/03 15:22:50;;;;;;;;;;;;;;;23.12;40.50;95445.22;10394045;28;2000;-68
2023/07/03 15:27:50;;;;;;;;;;;;;;;23.12;40.35;95446.00;10411148;28;1928;-70
2023/07/03 15:32:51;;;;;;;;;;;;;;;23.11;39.89;95443.66;10397103;28;1967;-69
2023/07/03 15:37:51;;;;;;;;;;;;;;;23.11;40.05;95433.06;10397017;28;1943;-71
2023/07/03 15:42:53;;;;;;;;;;;;;;;23.10;40.20;95437.56;10408757;28;2336;-69
2023/07/03 15:47:53;;;;;;;;;;;;;;;23.11;39.80;95439.16;10399459;28;2211;-68
2023/07/03 15:52:54;;;;;;;;;;;;;;;23.09;39.69;95440.53;10397207;28;1907;-69
2023/07/03 15:57:54;;;;;;;;;;;;;;;23.08;40.42;95444.25;10396717;28;1939;-69
2023/07/03 16:02:54;;;;;;;;;;;;;;;23.08;40.26;95438.97;10408503;28;2034;-69
2023/07/03 16:07:55;;;;;;;;;;;;;;;23.08;40.21;95447.66;10406367;28;1989;-69
2023/07/03 16:12:55;;;;;;;;;;;;;;;23.09;40.21;95440.53;10387248;28;1992;-70
2023/07/03 16:17:55;;;;;;;;;;;;;;;23.09;40.46;95451.09;10406513;28;2247;-69
2023/07/03 16:22:55;;;;;;;;;;;;;;;23.10;40.07;95450.78;10403269;28;2099;-69
2023/07/03 16:27:56;;;;;;;;;;;;;;;23.10;40.09;95452.69;10405938;28;1909;-69
2023/07/03 16:32:56;;;;;;;;;;;;;;;23.09;39.99;95457.19;10404853;28;1946;-70
2023/07/03 16:38:00;;;;;;;;;;;;;;;23.11;40.97;95460.31;10405984;28;1914;-69
2023/07/03 16:43:00;;;;;;;;;;;;;;;23.11;40.95;95465.59;10402632;28;4537;-69
2023/07/03 16:48:00;;;;;;;;;;;;;;;23.15;41.10;95476.34;10404711;28;1894;-68
2023/07/03 16:53:02;;;;;;;;;;;;;;;23.16;41.43;95483.22;10405156;28;1931;-66
2023/07/03 16:58:02;;;;;;;;;;;;;;;23.17;41.55;95471.56;10409319;28;2034;-68
2023/07/03 17:03:03;;;;;;;;;;;;;;;23.17;41.36;95476.84;10398680;28;2278;-68
2023/07/03 17:08:03;;;;;;;;;;;;;;;23.17;41.55;95474.97;10406307;28;1933;-69
2023/07/03 17:13:04;;;;;;;;;;;;;;;23.17;41.44;95471.56;10402568;28;1915;-71
2023/07/03 17:18:04;;;;;;;;;;;;;;;23.19;41.30;95480.75;10403711;28;1906;-69
2023/07/03 17:23:05;;;;;;;;;;;;;;;23.18;41.53;95475.78;10404684;28;1951;-68
2023/07/03 17:28:05;;;;;;;;;;;;;;;23.18;41.29;95470.47;10407968;28;1974;-66
2023/07/03 17:33:06;;;;;;;;;;;;;;;23.18;41.20;95481.06;10403533;28;1938;-70
2023/07/03 17:38:08;;;;;;;;;;;;;;;23.18;41.34;95479.22;10385117;28;2122;-70
2023/07/03 17:43:08;;;;;;;;;;;;;;;23.19;41.49;95477.31;10385965;28;4387;-71
2023/07/03 17:48:09;;;;;;;;;;;;;;;23.19;41.76;95472.03;10401788;28;1898;-73
2023/07/03 17:53:09;;;;;;;;;;;;;;;23.19;42.10;95464.91;10387784;28;1886;-71
2023/07/03 17:58:09;;;;;;;;;;;;;;;23.20;41.98;95463.03;10400918;28;1994;-70
2023/07/03 18:03:10;;;;;;;;;;;;;;;23.21;41.84;95468.03;10399690;28;2002;-72
2023/07/03 18:08:11;;;;;;;;;;;;;;;23.21;41.97;95464.59;10402667;28;2054;-70
2023/07/03 18:13:11;;;;;;;;;;;;;;;23.21;41.88;95470.66;10387095;28;2229;-70
2023/07/03 18:18:11;;;;;;;;;;;;;;;23.21;42.00;95470.66;10396846;28;2065;-70
2023/07/03 18:23:11;;;;;;;;;;;;;;;23.20;41.91;95479.69;10398870;28;1949;-70
2023/07/03 18:28:12;;;;;;;;;;;;;;;23.20;41.97;95468.31;10403464;28;1914;-70
2023/07/03 18:33:12;;;;;;;;;;;;;;;23.21;42.47;95467.22;10399316;28;3332;-69
2023/07/03 18:38:12;;;;;;;;;;;;;;;23.21;42.21;95470.66;10397535;28;1997;-67
2023/07/03 18:43:12;;;;;;;;;;;;;;;23.23;42.49;95483.59;10401246;28;4682;-69
2023/07/03 18:48:13;;;;;;;;;;;;;;;23.23;42.60;95480.94;10398999;28;1906;-69
2023/07/03 18:53:13;;;;;;;;;;;;;;;23.23;42.79;95481.72;10366081;28;1933;-71
2023/07/03 18:58:13;;;;;;;;;;;;;;;23.24;42.74;95488.59;10400025;28;1893;-68
2023/07/03 19:03:14;;;;;;;;;;;;;;;23.25;42.36;95492.78;10398704;28;2132;-69
2023/07/03 19:08:14;;;;;;;;;;;;;;;23.25;42.63;95484.06;10402311;28;2016;-69
2023/07/03 19:13:14;;;;;;;;;;;;;;;23.25;42.83;95494.66;10395801;28;2134;-69
2023/07/03 19:18:15;;;;;;;;;;;;;;;23.24;42.96;95508.97;10396317;28;2119;-69
2023/07/03 19:23:15;;;;;;;;;;;;;;;23.25;42.64;95506.00;10373134;28;1978;-71
2023/07/03 19:28:15;;;;;;;;;;;;;;;23.25;42.88;95503.38;10395230;28;2548;-69
2023/07/03 19:33:17;;;;;;;;;;;;;;;23.29;42.63;95503.56;10401868;28;1968;-69
2023/07/03 19:38:17;;;;;;;;;;;;;;;23.31;44.12;95496.09;10405444;28;1956;-69
2023/07/03 19:43:18;;;;;;;;;;;;;;;23.32;44.64;95506.44;10404256;28;4387;-68
2023/07/03 19:48:18;;;;;;;;;;;;;;;23.33;44.92;95504.56;10399944;28;1898;-69
2023/07/03 19:53:19;;;;;;;;;;;;;;;23.31;45.47;95512.75;10399306;28;1983;-68
2023/07/03 19:58:19;;;;;;;;;;;;;;;23.30;45.13;95527.09;10406438;28;2040;-69
2023/07/03 20:03:20;;;;;;;;;;;;;;;23.28;45.48;95526.59;10404386;28;1957;-68
2023/07/03 20:08:20;;;;;;;;;;;;;;;23.29;45.80;95535.28;10407695;28;1899;-68
2023/07/03 20:13:20;;;;;;;;;;;;;;;23.27;45.93;95535.59;10402043;28;1988;-68
2023/07/03 20:18:21;;;;;;;;;;;;;;;23.25;45.99;95535.09;10405018;28;2034;-68
2023/07/03 20:23:23;;;;;;;;;;;;;;;23.24;45.94;95538.84;10403865;28;2281;-68
2023/07/03 20:28:23;;;;;;;;;;;;;;;23.24;46.37;95530.13;10408819;28;2019;-67
2023/07/03 20:33:24;;;;;;;;;;;;;;;23.23;46.24;95539.91;10408765;28;1993;-67
2023/07/03 20:38:24;;;;;;;;;;;;;;;23.21;46.40;95546.56;10406482;28;1925;-68
2023/07/03 20:43:24;;;;;;;;;;;;;;;23.19;46.24;95541.56;10405667;28;4482;-67
2023/07/03 20:48:24;;;;;;;;;;;;;;;23.18;46.52;95540.03;10386252;28;1937;-68
2023/07/03 20:59:01;;;;;;;;;;;;;;;23.15;45.78;95545.09;10322122;28;1903;-67
2023/07/03 21:04:03;;;;;;;;;;;;;;;23.12;46.09;95546.47;10387992;28;2115;-67
2023/07/03 21:09:04;;;;;;;;;;;;;;;23.14;46.34;95548.84;10399884;28;2416;-65
2023/07/03 21:14:04;;;;;;;;;;;;;;;23.13;46.44;95549.91;10404077;28;2079;-67
2023/07/03 21:19:08;;;;;;;;;;;;;;;23.11;46.49;95552.84;10401867;28;2246;-67
2023/07/03 21:24:09;;;;;;;;;;;;;;;23.10;46.58;95543.34;10404151;28;1977;-68
2023/07/03 21:29:09;;;;;;;;;;;;;;;23.09;46.48;95539.13;10386913;28;1996;-68
2023/07/03 21:34:10;;;;;;;;;;;;;;;23.10;46.67;95542.56;10400840;28;2004;-68
2023/07/03 21:39:11;;;;;;;;;;;;;;;23.09;46.47;95543.63;10404147;28;1930;-68
2023/07/03 21:44:12;;;;;;;;;;;;;;;23.09;46.88;95546.28;10398645;28;4525;-68
2023/07/03 21:49:13;;;;;;;;;;;;;;;23.09;46.82;95552.34;10382117;28;1973;-68
2023/07/03 21:54:13;;;;;;;;;;;;;;;23.08;46.94;95548.13;10400843;28;1901;-68
2023/07/03 21:59:13;;;;;;;;;;;;;;;23.08;46.92;95550.00;10401946;28;1954;-68
2023/07/03 22:04:13;;;;;;;;;;;;;;;23.08;46.90;95553.41;10400539;28;1985;-68
2023/07/03 22:09:14;;;;;;;;;;;;;;;23.07;46.75;95548.44;10400378;28;1968;-66
2023/07/03 22:14:14;;;;;;;;;;;;;;;23.08;47.02;95550.00;10399352;28;1933;-68
2023/07/03 22:19:14;;;;;;;;;;;;;;;23.07;46.95;95554.50;10399321;28;2270;-68
2023/07/03 22:24:14;;;;;;;;;;;;;;;23.07;46.75;95551.06;10399281;28;1976;-68
2023/07/03 22:29:15;;;;;;;;;;;;;;;23.06;46.65;95552.16;10401929;28;2023;-68
2023/07/03 22:34:15;;;;;;;;;;;;;;;23.06;46.36;95560.09;10402126;28;1987;-67
2023/07/03 22:39:16;;;;;;;;;;;;;;;23.03;46.64;95556.19;10399246;28;2031;-68
2023/07/03 22:44:16;;;;;;;;;;;;;;;23.03;46.52;95552.75;10400026;28;4603;-68
2023/07/03 22:49:16;;;;;;;;;;;;;;;23.01;46.52;95528.47;10400618;28;1939;-68
2023/07/03 22:54:18;;;;;;;;;;;;;;;23.00;46.43;95532.19;10398639;28;1901;-68
2023/07/03 22:59:18;;;;;;;;;;;;;;;22.99;46.47;95527.97;10382647;28;2143;-69
2023/07/03 23:04:18;;;;;;;;;;;;;;;22.99;46.50;95527.97;10398914;28;2259;-68
2023/07/03 23:09:19;;;;;;;;;;;;;;;22.99;46.27;95525.31;10399232;28;1998;-69
2023/07/03 23:14:19;;;;;;;;;;;;;;;22.96;45.82;95531.19;10401352;28;2217;-68
2023/07/03 23:19:19;;;;;;;;;;;;;;;22.94;45.50;95528.06;10398408;28;1902;-69
2023/07/03 23:24:20;;;;;;;;;;;;;;;22.94;45.37;95525.41;10397032;28;1978;-69
2023/07/03 23:29:20;;;;;;;;;;;;;;;22.92;45.57;95528.34;10401330;28;1871;-68
2023/07/03 23:34:22;;;;;;;;;;;;;;;22.90;44.94;95532.38;10381220;28;2038;-69
2023/07/03 23:39:23;;;;;;;;;;;;;;;22.90;45.73;95538.44;10396596;28;2084;-68
2023/07/03 23:44:24;;;;;;;;;;;;;;;22.90;45.23;95535.00;10401409;28;4422;-69
2023/07/03 23:49:24;;;;;;;;;;;;;;;22.89;45.65;95544.03;10398626;28;2019;-68
2023/07/03 23:54:25;;;;;;;;;;;;;;;22.87;44.99;95540.91;10397445;28;1909;-69
2023/07/03 23:59:26;;;;;;;;;;;;;;;22.88;45.42;95535.31;10398900;28;1894;-69
